Carrollwood, Florida
Current Conditions -  °F | °C
As of 5:53 PM on Wednesday 22 Oct 2014 (Local Time) from KTPA Reporting Station
Broken Clouds Broken Clouds  
Wind Chill: 81°   Ceiling: 28000
Heat Index: 82°   Visibility: 10mi
Dew Point: 61°   Wind: 6mph
Humidity: 50%   Direction: 280°W
Pressure: 29.93"   Gusts: NA
Location:  28.0718°N, 82.5592°W
Report Text: KTPA 222153Z 28005KT 10SM BKN280 27/16 A2993 RMK AO2 SLP133 T02720161
Loading
Personal Weather Stations






























Interactive Weather Map
Tropical Storm Tracking
New forecast layout! Learn more

10-Day Weather Forecast

Advertisements
Track Severe Weather on mobile